createdAt,value
2018-03-21T00:00:20.845Z,22.63
2018-03-21T00:02:48.322Z,21.75
2018-03-21T00:05:16.554Z,23.80
2018-03-21T00:07:44.011Z,21.90
2018-03-21T00:10:11.487Z,23.35
2018-03-21T00:12:38.938Z,24.67
2018-03-21T00:15:06.410Z,25.40
2018-03-21T00:17:33.871Z,24.73
2018-03-21T00:20:01.322Z,23.93
2018-03-21T00:22:28.796Z,24.85
2018-03-21T00:24:56.254Z,23.05
2018-03-21T00:27:24.482Z,22.42
2018-03-21T00:29:51.958Z,21.85
2018-03-21T00:32:19.405Z,23.20
2018-03-21T00:34:46.875Z,23.02
2018-03-21T00:37:14.330Z,22.45
2018-03-21T00:39:41.808Z,20.80
2018-03-21T00:42:09.267Z,19.50
2018-03-21T00:44:36.740Z,20.25
2018-03-21T00:47:04.951Z,21.27
2018-03-21T00:49:32.430Z,21.00
2018-03-21T00:51:59.896Z,20.85
2018-03-21T00:54:27.358Z,20.10
2018-03-21T00:56:54.819Z,21.15
2018-03-21T00:59:22.286Z,20.65
2018-03-21T01:01:49.762Z,21.33
2018-03-21T01:04:17.230Z,21.52
2018-03-21T01:06:45.454Z,22.37
2018-03-21T01:09:12.935Z,21.52
2018-03-21T01:11:40.383Z,20.67
2018-03-21T01:14:07.863Z,20.27
2018-03-21T01:16:35.326Z,21.37
2018-03-21T01:19:02.786Z,19.90
2018-03-21T01:21:30.242Z,19.85
2018-03-21T01:23:57.709Z,20.65
2018-03-21T01:26:25.154Z,19.85
2018-03-21T01:28:52.614Z,19.60
2018-03-21T01:31:20.072Z,20.10
2018-03-21T01:33:47.541Z,20.17
2018-03-21T01:36:15.771Z,20.40
2018-03-21T01:38:43.225Z,19.52
2018-03-21T01:41:10.696Z,19.90
2018-03-21T01:43:38.150Z,19.25
2018-03-21T01:46:05.631Z,18.33
2018-03-21T01:48:33.092Z,18.87
2018-03-21T01:51:00.534Z,18.65
2018-03-21T01:53:28.003Z,18.95
2018-03-21T01:55:55.463Z,18.33
2018-03-21T01:58:22.926Z,17.70
2018-03-21T02:00:50.398Z,17.35
2018-03-21T02:03:18.618Z,17.45
2018-03-21T02:05:46.086Z,17.03
2018-03-21T02:08:13.549Z,17.37
2018-03-21T02:10:41.014Z,14.95
2018-03-21T02:13:08.474Z,15.65
2018-03-21T02:15:35.934Z,15.55
2018-03-21T02:18:03.387Z,14.93
2018-03-21T02:20:30.861Z,15.45
2018-03-21T02:22:58.338Z,16.17
2018-03-21T02:25:26.608Z,15.98
2018-03-21T02:27:54.062Z,15.35
2018-03-21T02:30:21.519Z,15.30
2018-03-21T02:32:48.975Z,15.63
2018-03-21T02:35:16.438Z,13.90
2018-03-21T02:37:43.886Z,14.10
2018-03-21T02:40:11.354Z,15.02
2018-03-21T02:42:38.816Z,14.70
2018-03-21T02:45:06.285Z,14.00
2018-03-21T02:47:34.527Z,13.13
2018-03-21T02:50:02.063Z,13.50
2018-03-21T02:52:29.462Z,13.97
2018-03-21T04:15:59.211Z,7.67
2018-03-21T04:18:26.682Z,10.88
2018-03-21T04:20:54.167Z,10.73
2018-03-21T04:23:22.398Z,11.35
2018-03-21T04:25:49.873Z,10.82
2018-03-21T04:28:17.347Z,10.73
2018-03-21T04:30:44.815Z,10.57
2018-03-21T04:33:13.061Z,10.45
2018-03-21T04:35:40.534Z,10.40
2018-03-21T04:38:08.008Z,10.13
2018-03-21T04:40:35.467Z,10.55
2018-03-21T04:43:03.699Z,9.80
2018-03-21T04:45:31.180Z,10.00
2018-03-21T04:47:58.643Z,10.60
2018-03-21T04:50:26.113Z,9.52
2018-03-21T04:52:53.557Z,9.60
2018-03-21T04:55:21.043Z,10.10
2018-03-21T04:57:49.301Z,8.80
2018-03-21T05:00:16.744Z,9.45
2018-03-21T05:02:44.205Z,9.10
2018-03-21T05:05:11.682Z,9.45
2018-03-21T05:07:39.144Z,9.43
2018-03-21T05:10:07.396Z,8.98
2018-03-21T05:12:34.846Z,9.10
2018-03-21T05:15:02.307Z,8.80
2018-03-21T05:17:29.770Z,9.43
2018-03-21T05:19:57.231Z,9.27
2018-03-21T05:22:24.692Z,8.10
2018-03-21T05:24:52.151Z,9.50
2018-03-21T05:27:19.624Z,8.50
2018-03-21T05:29:47.078Z,9.70
2018-03-21T05:32:14.571Z,9.13
2018-03-21T05:34:42.033Z,9.43
2018-03-21T05:37:09.520Z,9.10
2018-03-21T05:39:36.971Z,9.70
2018-03-21T05:42:04.423Z,9.40
2018-03-21T05:44:31.909Z,10.38
2018-03-21T05:46:59.369Z,10.10
2018-03-21T05:49:26.851Z,10.13
2018-03-21T05:51:55.085Z,9.80
2018-03-21T05:54:22.546Z,9.60
2018-03-21T05:56:50.045Z,9.23
2018-03-21T05:59:17.474Z,9.68
2018-03-21T06:01:44.954Z,9.20
2018-03-21T06:04:12.417Z,9.43
2018-03-21T06:06:40.648Z,9.98
2018-03-21T06:09:08.117Z,9.70
2018-03-21T06:11:35.571Z,9.50
2018-03-21T06:14:03.039Z,10.30
2018-03-21T06:16:30.507Z,8.80
2018-03-21T06:21:25.008Z,7.67
2018-03-21T06:23:52.469Z,8.23
2018-03-21T06:26:19.939Z,8.80
2018-03-21T06:28:47.394Z,6.93
2018-03-21T06:31:14.857Z,7.03
2018-03-21T06:33:42.337Z,7.60
2018-03-21T06:36:10.567Z,6.77
2018-03-21T06:38:38.026Z,7.40
2018-03-21T06:41:05.488Z,5.90
2018-03-21T06:48:26.988Z,6.40
2018-03-21T06:50:54.442Z,6.53
2018-03-21T07:15:40.058Z,5.20
2018-03-21T07:18:07.530Z,8.30
2018-03-21T07:20:35.766Z,7.87
2018-03-21T07:23:03.222Z,7.53
2018-03-21T07:25:30.683Z,8.05
2018-03-21T07:27:58.149Z,6.30
2018-03-21T07:30:25.610Z,7.63
2018-03-21T07:32:53.087Z,7.32
2018-03-21T07:35:21.352Z,7.22
2018-03-21T07:37:48.819Z,6.70
2018-03-21T07:40:16.275Z,7.62
2018-03-21T07:42:43.731Z,7.20
2018-03-21T07:45:11.208Z,6.70
2018-03-21T07:47:39.434Z,6.90
2018-03-21T07:50:06.904Z,6.95
2018-03-21T07:52:34.370Z,6.70
2018-03-21T07:55:01.832Z,6.87
2018-03-21T07:57:29.292Z,6.90
2018-03-21T07:59:56.751Z,5.95
2018-03-21T08:02:24.210Z,6.70
2018-03-21T08:04:51.681Z,6.35
2018-03-21T08:07:19.922Z,6.37
2018-03-21T08:09:47.377Z,6.70
2018-03-21T08:12:14.847Z,6.68
2018-03-21T08:14:42.302Z,6.10
2018-03-21T08:17:09.767Z,6.10
2018-03-21T08:19:37.289Z,6.40
2018-03-21T08:22:04.694Z,6.43
2018-03-21T08:24:32.150Z,5.87
2018-03-21T08:26:59.630Z,5.90
2018-03-21T08:29:27.853Z,5.30
2018-03-21T08:31:55.323Z,5.45
2018-03-21T08:34:23.606Z,6.00
2018-03-21T08:36:51.028Z,6.32
2018-03-21T08:39:18.477Z,6.50
2018-03-21T08:41:45.942Z,5.40
2018-03-21T08:44:13.815Z,6.97
2018-03-21T08:46:41.291Z,5.87
2018-03-21T08:49:08.759Z,6.30
2018-03-21T08:51:36.210Z,6.37
2018-03-21T08:54:03.672Z,6.00
2018-03-21T08:56:31.139Z,6.77
2018-03-21T08:58:58.614Z,6.43
2018-03-21T09:01:26.111Z,6.22
2018-03-21T09:03:53.542Z,6.25
2018-03-21T09:06:21.770Z,6.15
2018-03-21T09:08:49.242Z,6.25
2018-03-21T09:11:16.704Z,6.55
2018-03-21T09:13:44.169Z,6.35
2018-03-21T09:16:11.619Z,6.13
2018-03-21T09:18:39.067Z,5.25
2018-03-21T09:21:06.517Z,6.10
2018-03-21T09:23:33.984Z,5.80
2018-03-21T09:26:01.444Z,5.50
2018-03-21T09:28:28.895Z,5.30
2018-03-21T09:30:56.356Z,5.45
2018-03-21T09:33:23.819Z,5.60
2018-03-21T09:35:51.268Z,5.13
2018-03-21T09:38:18.736Z,6.40
2018-03-21T09:40:46.263Z,5.55
2018-03-21T09:43:13.718Z,6.22
2018-03-21T09:45:41.178Z,5.75
2018-03-21T09:48:08.648Z,5.43
2018-03-21T09:50:36.107Z,5.68
2018-03-21T09:53:03.574Z,5.37
2018-03-21T09:55:31.034Z,5.40
2018-03-21T09:57:58.492Z,6.00
2018-03-21T10:00:25.939Z,5.70
2018-03-21T10:02:53.400Z,5.53
2018-03-21T10:05:20.846Z,5.90
2018-03-21T10:07:48.312Z,4.80
2018-03-21T10:10:15.758Z,4.10
2018-03-21T10:12:43.220Z,5.00
2018-03-21T10:15:10.665Z,4.77
2018-03-21T10:17:38.115Z,4.50
2018-03-21T10:20:05.574Z,5.32
2018-03-21T10:22:33.036Z,4.62
2018-03-21T10:25:00.500Z,4.90
2018-03-21T10:27:27.969Z,5.45
2018-03-21T10:29:55.424Z,5.00
2018-03-21T10:32:22.878Z,4.17
2018-03-21T10:34:50.324Z,3.57
2018-03-21T10:37:17.779Z,4.20
2018-03-21T10:39:45.242Z,3.67
2018-03-21T10:42:12.702Z,3.40
2018-03-21T10:44:40.161Z,4.20
2018-03-21T10:47:07.605Z,3.30
2018-03-21T10:49:35.827Z,4.50
2018-03-21T10:52:03.284Z,4.35
2018-03-21T10:54:30.766Z,4.40
2018-03-21T10:56:58.232Z,3.65
2018-03-21T10:59:25.695Z,3.95
2018-03-21T11:01:58.772Z,3.70
2018-03-21T11:04:26.250Z,4.20
2018-03-21T11:06:54.466Z,3.60
2018-03-21T11:09:21.928Z,3.70
2018-03-21T11:11:49.374Z,3.73
2018-03-21T11:14:16.834Z,4.05
2018-03-21T11:16:44.292Z,3.60
2018-03-21T11:19:11.762Z,4.10
2018-03-21T11:21:39.203Z,3.33
2018-03-21T11:24:06.663Z,3.40
2018-03-21T11:26:34.126Z,3.37
2018-03-21T11:29:01.592Z,3.65
2018-03-21T11:31:29.039Z,3.40
2018-03-21T11:33:56.510Z,3.75
2018-03-21T11:36:24.435Z,3.33
2018-03-21T11:38:52.667Z,3.42
2018-03-21T11:41:20.111Z,3.30
2018-03-21T11:43:47.566Z,2.70
2018-03-21T11:46:15.020Z,2.00
2018-03-21T11:48:42.475Z,2.37
2018-03-21T11:51:09.965Z,1.90
2018-03-21T11:53:37.390Z,2.77
2018-03-21T11:56:04.840Z,2.80
2018-03-21T11:58:32.293Z,2.80
2018-03-21T12:00:59.743Z,2.63
2018-03-21T12:03:27.963Z,2.50
2018-03-21T12:05:55.425Z,2.40
2018-03-21T12:08:22.888Z,2.40
2018-03-21T12:10:50.341Z,2.20
2018-03-21T12:13:17.792Z,2.80
2018-03-21T12:15:45.254Z,2.97
2018-03-21T12:18:13.480Z,2.40
2018-03-21T12:40:18.625Z,2.50
2018-03-21T12:42:46.082Z,2.90
2018-03-21T12:45:13.542Z,3.10
2018-03-21T12:47:41.004Z,3.10
2018-03-21T12:50:08.496Z,3.08
2018-03-21T12:52:35.919Z,3.10
2018-03-21T12:55:03.380Z,3.13
2018-03-21T14:38:08.954Z,3.53
2018-03-21T14:40:37.176Z,2.50
2018-03-21T14:43:04.623Z,2.77
2018-03-21T14:45:32.086Z,3.70
2018-03-21T14:47:59.536Z,3.85
2018-03-21T14:50:26.987Z,3.37
2018-03-21T14:52:54.454Z,3.85
2018-03-21T14:55:21.906Z,3.58
2018-03-21T14:57:49.367Z,3.25
2018-03-21T15:00:16.832Z,3.78
2018-03-21T15:02:44.277Z,3.60
2018-03-21T15:05:11.832Z,3.90
2018-03-21T15:07:39.321Z,3.75
2018-03-21T15:10:06.789Z,4.00
2018-03-21T15:12:34.266Z,3.50
2018-03-21T15:15:01.724Z,3.70
2018-03-21T15:17:29.180Z,3.70
2018-03-21T15:19:56.646Z,3.30
2018-03-21T15:22:24.111Z,3.40
2018-03-21T15:24:52.348Z,3.10
2018-03-21T15:27:19.789Z,3.20
2018-03-21T15:29:47.251Z,3.40
2018-03-21T15:32:14.711Z,3.45
2018-03-21T15:34:42.157Z,3.45
2018-03-21T15:37:09.620Z,3.40
2018-03-21T15:39:37.062Z,3.55
2018-03-21T15:42:04.511Z,3.00
2018-03-21T15:44:31.987Z,3.95
2018-03-21T15:46:59.440Z,3.20
2018-03-21T15:49:26.882Z,3.20
2018-03-21T15:51:54.346Z,3.00
2018-03-21T15:54:21.797Z,3.40
2018-03-21T15:56:50.018Z,3.47
2018-03-21T15:59:17.489Z,3.30
2018-03-21T16:01:44.947Z,3.50
2018-03-21T16:04:12.435Z,3.50
2018-03-21T16:06:40.670Z,3.55
2018-03-21T16:09:08.208Z,3.20
2018-03-21T16:11:35.687Z,3.50
2018-03-21T16:14:03.163Z,3.20
2018-03-21T16:16:30.627Z,5.00
2018-03-21T16:18:58.061Z,3.30
2018-03-21T16:21:25.521Z,2.70
2018-03-21T16:23:52.988Z,3.20
2018-03-21T16:26:20.440Z,2.85
2018-03-21T16:28:47.891Z,2.80
2018-03-21T16:31:15.342Z,3.20
2018-03-21T16:33:42.806Z,3.22
2018-03-21T16:36:10.266Z,3.10
2018-03-21T16:38:37.725Z,2.90
2018-03-21T16:41:05.183Z,2.90
2018-03-21T16:43:32.639Z,2.80
2018-03-21T16:46:00.103Z,2.78
2018-03-21T16:48:27.569Z,3.10
2018-03-21T16:50:55.036Z,2.70
2018-03-21T16:53:22.495Z,3.03
2018-03-21T16:55:49.964Z,2.55
2018-03-21T16:58:17.427Z,2.95
2018-03-21T17:00:45.665Z,2.85
2018-03-21T17:03:13.123Z,2.60
2018-03-21T17:05:40.577Z,2.87
2018-03-21T17:08:08.040Z,4.07
2018-03-21T17:10:35.495Z,2.20
2018-03-21T17:13:02.955Z,2.15
2018-03-21T17:15:30.414Z,2.40
2018-03-21T17:17:57.864Z,2.50
2018-03-21T17:30:14.131Z,1.70
2018-03-21T17:32:41.583Z,1.80
2018-03-21T17:35:09.043Z,1.90
2018-03-21T17:37:36.494Z,1.50
2018-03-21T17:40:03.962Z,1.83
2018-03-21T17:42:31.421Z,1.60
2018-03-21T17:44:58.874Z,2.10
2018-03-21T17:47:26.332Z,2.73
2018-03-21T17:49:53.785Z,2.20
2018-03-21T17:52:21.251Z,1.93
2018-03-21T17:54:48.702Z,1.90
2018-03-21T17:57:16.166Z,2.20
2018-03-21T17:59:43.618Z,1.90
2018-03-21T18:02:11.084Z,4.40
2018-03-21T18:04:38.544Z,6.53
2018-03-21T18:07:05.990Z,5.87
2018-03-21T18:09:33.445Z,5.30
2018-03-21T18:12:00.913Z,4.63
2018-03-21T18:14:28.358Z,4.87
2018-03-21T18:16:55.822Z,3.90
2018-03-21T18:19:23.283Z,3.40
2018-03-21T18:21:50.745Z,3.53
2018-03-21T18:24:18.202Z,3.77
2018-03-21T18:26:45.658Z,3.40
2018-03-21T18:29:13.105Z,3.77
2018-03-21T18:31:40.573Z,2.90
2018-03-21T18:34:08.021Z,3.40
2018-03-21T18:36:35.488Z,3.00
2018-03-21T18:39:02.942Z,2.70
2018-03-21T18:41:30.407Z,2.80
2018-03-21T18:43:57.854Z,4.10
2018-03-21T18:46:25.328Z,3.50
2018-03-21T18:48:52.800Z,3.83
2018-03-21T18:51:20.251Z,3.03
2018-03-21T18:53:47.708Z,2.97
2018-03-21T18:56:15.169Z,3.03
2018-03-21T18:58:42.624Z,2.90
2018-03-21T19:01:10.087Z,3.20
2018-03-21T19:03:37.552Z,4.05
2018-03-21T19:06:05.026Z,3.85
2018-03-21T19:08:32.475Z,7.50
2018-03-21T19:38:00.211Z,3.00
2018-03-21T19:40:27.717Z,8.30
2018-03-21T19:42:55.958Z,6.10
2018-03-21T19:45:23.429Z,5.30
2018-03-21T19:47:50.913Z,8.90
2018-03-21T19:50:19.134Z,7.40
2018-03-21T19:52:46.700Z,8.10
2018-03-21T19:55:14.163Z,10.43
2018-03-21T19:57:41.676Z,13.30
2018-03-21T20:00:09.148Z,19.75
2018-03-21T20:02:36.619Z,13.65
2018-03-21T20:05:04.116Z,11.82
2018-03-21T20:07:31.615Z,11.18
2018-03-21T20:09:59.105Z,10.85
2018-03-21T20:12:26.584Z,8.68
2018-03-21T20:14:54.048Z,6.27
2018-03-21T20:17:21.508Z,7.62
2018-03-21T20:19:48.966Z,8.00
2018-03-21T20:22:16.456Z,7.80
2018-03-21T20:24:43.936Z,7.82
2018-03-21T20:27:11.426Z,6.80
2018-03-21T20:29:38.891Z,6.18
2018-03-21T20:32:06.375Z,5.70
2018-03-21T20:34:34.713Z,8.88
2018-03-21T20:37:02.195Z,9.63
2018-03-21T20:39:29.654Z,5.87
2018-03-21T20:41:57.112Z,4.90
2018-03-21T20:44:24.562Z,4.32
2018-03-21T20:46:52.047Z,4.00
2018-03-21T20:49:20.295Z,4.10
2018-03-21T20:51:47.754Z,3.72
2018-03-21T20:54:15.236Z,4.80
2018-03-21T20:56:43.465Z,4.20
2018-03-21T20:59:10.946Z,4.17
2018-03-21T21:01:38.427Z,3.60
2018-03-21T21:04:06.655Z,4.00
2018-03-21T21:06:34.122Z,4.10
2018-03-21T21:09:01.587Z,4.30
2018-03-21T21:11:29.054Z,4.40
2018-03-21T21:13:56.528Z,4.30
2018-03-21T21:16:24.000Z,3.97
2018-03-21T21:18:52.273Z,4.40
2018-03-21T21:21:20.519Z,5.20
2018-03-21T21:23:47.980Z,4.50
2018-03-21T21:26:15.462Z,5.30
2018-03-21T21:28:42.928Z,4.65
2018-03-21T21:31:11.146Z,4.50
2018-03-21T21:33:38.629Z,4.28
2018-03-21T21:36:06.113Z,4.50
2018-03-21T21:38:34.346Z,3.90
2018-03-21T21:41:01.827Z,5.20
2018-03-21T21:43:29.346Z,4.60
2018-03-21T21:45:56.803Z,4.43
2018-03-21T21:48:24.279Z,5.10
2018-03-21T21:50:51.740Z,4.90
2018-03-21T21:53:19.219Z,4.85
2018-03-21T21:55:46.670Z,4.20
2018-03-21T21:58:14.135Z,5.32
2018-03-21T22:00:41.594Z,5.53
2018-03-21T22:03:09.065Z,5.35
2018-03-21T22:05:36.524Z,5.20
2018-03-21T22:08:03.970Z,5.17
2018-03-21T22:10:31.422Z,6.62
2018-03-21T22:12:58.883Z,4.70
2018-03-21T22:15:26.339Z,4.50
2018-03-21T22:17:53.798Z,4.00
2018-03-21T22:20:21.258Z,4.80
2018-03-21T22:22:48.714Z,4.75
2018-03-21T22:25:16.167Z,4.50
2018-03-21T22:27:43.638Z,4.70
2018-03-21T22:30:11.089Z,7.55
2018-03-21T22:32:38.566Z,6.05
2018-03-21T22:35:06.793Z,8.05
2018-03-21T22:37:34.262Z,6.40
2018-03-21T22:40:02.485Z,7.15
2018-03-21T22:42:30.723Z,5.95
2018-03-21T22:44:58.179Z,6.20
2018-03-21T22:47:25.654Z,6.40
2018-03-21T22:49:53.105Z,5.60
2018-03-21T22:52:20.551Z,6.30
2018-03-21T22:54:48.015Z,6.78
2018-03-21T22:57:15.470Z,7.40
2018-03-21T22:59:42.938Z,6.60
2018-03-21T23:02:10.396Z,6.90
2018-03-21T23:04:37.871Z,6.53
2018-03-21T23:07:05.325Z,6.80
2018-03-21T23:09:32.777Z,6.10
2018-03-21T23:12:00.239Z,6.00
2018-03-21T23:14:27.701Z,4.70
2018-03-21T23:16:55.151Z,5.00
2018-03-21T23:19:22.623Z,9.03
2018-03-21T23:21:50.843Z,7.23
2018-03-21T23:24:18.319Z,8.63
2018-03-21T23:26:45.778Z,13.07
2018-03-21T23:29:13.244Z,11.40
2018-03-21T23:31:41.467Z,11.70
2018-03-21T23:34:08.926Z,7.70
2018-03-21T23:36:36.390Z,7.27
2018-03-21T23:39:03.849Z,5.27
2018-03-21T23:41:31.332Z,4.40
2018-03-21T23:43:58.799Z,4.90
2018-03-21T23:46:26.268Z,5.40
2018-03-21T23:48:53.731Z,4.90
2018-03-21T23:51:21.208Z,5.27
2018-03-21T23:53:48.663Z,4.57
2018-03-21T23:56:16.134Z,5.30
2018-03-21T23:58:44.376Z,4.60
